createdAt,value
2019-05-15T00:01:08.808Z,10.40
2019-05-15T00:03:39.131Z,10.30
2019-05-15T00:06:08.416Z,10.20
2019-05-15T00:08:38.608Z,10.20
2019-05-15T00:11:08.271Z,10.10
2019-05-15T00:13:38.858Z,10.10
2019-05-15T00:16:08.689Z,10.10
2019-05-15T00:18:38.997Z,9.90
2019-05-15T00:21:09.398Z,9.80
2019-05-15T00:23:38.953Z,9.80
2019-05-15T00:26:09.190Z,9.80
2019-05-15T00:28:39.024Z,9.70
2019-05-15T00:31:09.041Z,9.60
2019-05-15T00:33:39.451Z,9.60
2019-05-15T00:36:08.799Z,9.60
2019-05-15T00:38:39.084Z,9.60
2019-05-15T00:41:09.533Z,9.60
2019-05-15T00:43:38.825Z,9.60
2019-05-15T00:46:09.194Z,9.60
2019-05-15T00:48:39.786Z,9.50
2019-05-15T00:51:08.732Z,9.40
2019-05-15T00:53:39.022Z,9.20
2019-05-15T00:56:08.945Z,9.30
2019-05-15T00:58:39.963Z,9.20
2019-05-15T01:01:08.657Z,9.10
2019-05-15T01:03:38.738Z,9.00
2019-05-15T01:06:08.327Z,9.00
2019-05-15T01:08:39.287Z,8.90
2019-05-15T01:11:09.212Z,9.00
2019-05-15T01:13:38.825Z,8.90
2019-05-15T01:16:09.175Z,8.90
2019-05-15T01:18:38.616Z,9.00
2019-05-15T01:21:08.385Z,8.80
2019-05-15T01:27:09.005Z,8.90
2019-05-15T01:29:44.444Z,8.30
2019-05-15T01:32:08.406Z,8.40
2019-05-15T01:34:38.449Z,8.40
2019-05-15T01:37:08.534Z,8.50
2019-05-15T01:39:38.496Z,8.60
2019-05-15T01:42:08.368Z,8.70
2019-05-15T01:44:38.991Z,8.70
2019-05-15T01:47:08.467Z,8.70
2019-05-15T01:49:38.372Z,8.70
2019-05-15T01:52:08.029Z,8.60
2019-05-15T01:54:38.296Z,8.50
2019-05-15T01:57:09.359Z,8.50
2019-05-15T01:59:40.212Z,8.50
2019-05-15T02:02:09.625Z,8.50
2019-05-15T02:04:39.340Z,8.50
2019-05-15T02:07:08.481Z,8.40
2019-05-15T02:09:38.541Z,8.30
2019-05-15T02:12:08.713Z,8.30
2019-05-15T02:14:39.232Z,8.20
2019-05-15T02:17:08.582Z,8.10
2019-05-15T02:19:39.184Z,8.10
2019-05-15T02:22:08.427Z,8.20
2019-05-15T02:24:39.032Z,8.10
2019-05-15T02:27:09.021Z,8.00
2019-05-15T02:30:12.980Z,7.90
2019-05-15T02:32:30.216Z,7.90
2019-05-15T02:34:59.014Z,7.80
2019-05-15T02:37:29.404Z,7.90
2019-05-15T02:39:59.051Z,7.90
2019-05-15T02:42:29.077Z,7.90
2019-05-15T02:44:58.689Z,7.90
2019-05-15T02:47:29.075Z,7.90
2019-05-15T02:49:59.299Z,7.90
2019-05-15T02:52:29.497Z,8.00
2019-05-15T02:54:59.918Z,7.90
2019-05-15T02:57:30.008Z,7.80
2019-05-15T02:59:59.456Z,7.80
2019-05-15T03:02:28.713Z,7.80
2019-05-15T03:04:59.572Z,7.60
2019-05-15T03:07:29.606Z,7.60
2019-05-15T03:09:59.965Z,7.50
2019-05-15T03:12:29.276Z,7.50
2019-05-15T03:14:59.810Z,7.40
2019-05-15T03:17:29.804Z,7.40
2019-05-15T03:19:59.433Z,7.30
2019-05-15T03:22:29.343Z,7.50
2019-05-15T03:24:59.335Z,7.60
2019-05-15T03:27:30.404Z,7.50
2019-05-15T03:29:59.410Z,7.50
2019-05-15T03:32:42.044Z,7.50
2019-05-15T03:35:05.196Z,7.50
2019-05-15T03:37:33.375Z,7.50
2019-05-15T03:40:00.235Z,7.60
2019-05-15T03:42:29.432Z,7.60
2019-05-15T03:47:40.103Z,7.50
2019-05-15T03:50:09.946Z,7.50
2019-05-15T03:52:39.886Z,7.60
2019-05-15T03:55:10.626Z,7.60
2019-05-15T03:57:40.364Z,7.50
2019-05-15T04:00:10.259Z,7.60
2019-05-15T04:02:39.815Z,7.60
2019-05-15T04:05:11.864Z,7.60
2019-05-15T04:07:40.342Z,7.70
2019-05-15T04:10:09.986Z,7.80
2019-05-15T04:12:40.376Z,7.80
2019-05-15T04:15:11.329Z,7.90
2019-05-15T04:17:40.765Z,8.10
2019-05-15T04:20:10.725Z,8.30
2019-05-15T04:22:40.420Z,8.40
2019-05-15T04:25:10.393Z,8.50
2019-05-15T04:27:42.518Z,8.60
2019-05-15T04:30:12.237Z,8.80
2019-05-15T04:32:40.954Z,8.90
2019-05-15T04:35:10.112Z,9.00
2019-05-15T04:37:40.797Z,9.20
2019-05-15T04:40:10.063Z,9.30
2019-05-15T04:42:39.933Z,9.40
2019-05-15T04:45:10.836Z,9.50
2019-05-15T04:47:40.264Z,9.60
2019-05-15T04:50:09.709Z,9.70
2019-05-15T04:52:42.839Z,9.70
2019-05-15T04:55:10.391Z,9.40
2019-05-15T04:57:40.681Z,9.70
2019-05-15T05:00:10.645Z,9.90
2019-05-15T05:02:40.336Z,9.90
2019-05-15T05:05:10.436Z,10.00
2019-05-15T05:07:39.850Z,9.90
2019-05-15T05:10:09.822Z,10.00
2019-05-15T05:12:41.651Z,10.10
2019-05-15T05:15:10.045Z,10.10
2019-05-15T05:17:39.539Z,10.00
2019-05-15T05:20:08.544Z,10.10
2019-05-15T05:22:39.252Z,10.20
2019-05-15T05:25:08.472Z,10.20
2019-05-15T05:27:38.259Z,10.30
2019-05-15T05:30:08.546Z,10.40
2019-05-15T05:32:39.023Z,10.30
2019-05-15T05:35:10.312Z,10.50
2019-05-15T05:37:39.304Z,10.60
2019-05-15T05:40:08.859Z,10.80
2019-05-15T05:42:38.844Z,10.90
2019-05-15T05:45:09.358Z,11.10
2019-05-15T05:47:38.579Z,11.20
2019-05-15T05:50:11.207Z,11.20
2019-05-15T05:52:40.321Z,11.40
2019-05-15T05:55:09.493Z,11.20
2019-05-15T05:57:38.574Z,11.30
2019-05-15T06:00:09.861Z,11.30
2019-05-15T06:02:46.835Z,11.30
2019-05-15T06:05:09.699Z,11.20
2019-05-15T06:07:38.945Z,11.40
2019-05-15T06:10:08.907Z,11.40
2019-05-15T06:12:39.023Z,11.50
2019-05-15T06:15:08.893Z,11.60
2019-05-15T06:17:39.202Z,11.60
2019-05-15T06:20:08.424Z,11.60
2019-05-15T06:22:38.756Z,11.70
2019-05-15T06:25:11.458Z,11.60
2019-05-15T06:27:39.239Z,11.50
2019-05-15T06:30:14.888Z,11.50
2019-05-15T06:32:40.259Z,11.70
2019-05-15T06:35:09.999Z,11.70
2019-05-15T06:37:39.797Z,11.80
2019-05-15T06:40:09.140Z,11.70
2019-05-15T06:42:39.235Z,11.70
2019-05-15T06:45:08.988Z,11.60
2019-05-15T06:47:39.440Z,11.60
2019-05-15T06:50:09.566Z,11.70
2019-05-15T06:52:38.335Z,11.80
2019-05-15T06:55:09.136Z,11.90
2019-05-15T06:57:39.623Z,11.90
2019-05-15T07:00:10.322Z,12.00
2019-05-15T07:02:39.362Z,12.00
2019-05-15T07:05:08.438Z,12.30
2019-05-15T07:07:38.789Z,12.40
2019-05-15T07:10:09.150Z,12.50
2019-05-15T07:12:39.196Z,12.50
2019-05-15T07:15:09.118Z,12.60
2019-05-15T07:17:39.371Z,12.60
2019-05-15T07:20:08.821Z,12.60
2019-05-15T07:22:39.245Z,12.80
2019-05-15T07:25:10.154Z,13.00
2019-05-15T07:27:39.346Z,12.80
2019-05-15T07:30:12.237Z,13.00
2019-05-15T07:32:40.781Z,13.10
2019-05-15T07:35:10.397Z,13.00
2019-05-15T07:37:39.143Z,12.90
2019-05-15T07:40:09.219Z,13.00
2019-05-15T07:42:38.964Z,13.10
2019-05-15T07:45:08.569Z,13.00
2019-05-15T07:47:38.606Z,13.10
2019-05-15T07:50:10.118Z,13.10
2019-05-15T07:52:39.796Z,13.20
2019-05-15T07:55:09.702Z,13.30
2019-05-15T07:57:39.574Z,13.30
2019-05-15T08:00:10.389Z,13.30
2019-05-15T08:02:39.422Z,13.40
2019-05-15T08:05:10.401Z,13.40
2019-05-15T08:07:39.248Z,13.60
2019-05-15T08:10:08.872Z,13.70
2019-05-15T08:12:39.245Z,13.80
2019-05-15T08:15:10.123Z,13.80
2019-05-15T08:17:59.011Z,13.80
2019-05-15T08:20:11.645Z,13.80
2019-05-15T08:22:40.446Z,13.70
2019-05-15T08:25:13.106Z,13.80
2019-05-15T08:27:40.820Z,14.00
2019-05-15T08:30:10.925Z,14.10
2019-05-15T08:32:39.686Z,14.30
2019-05-15T08:35:09.226Z,14.30
2019-05-15T08:37:38.549Z,14.10
2019-05-15T08:40:08.748Z,14.30
2019-05-15T08:42:41.617Z,14.10
2019-05-15T08:45:09.781Z,14.20
2019-05-15T08:47:38.755Z,14.30
2019-05-15T08:50:08.969Z,14.40
2019-05-15T08:52:39.284Z,14.30
2019-05-15T08:55:08.890Z,14.40
2019-05-15T08:57:38.452Z,14.50
2019-05-15T09:00:09.630Z,14.60
2019-05-15T09:02:38.590Z,14.50
2019-05-15T09:05:08.528Z,14.60
2019-05-15T09:07:38.455Z,14.70
2019-05-15T09:10:09.121Z,14.80
2019-05-15T09:12:38.756Z,14.80
2019-05-15T09:15:09.886Z,14.70
2019-05-15T09:17:39.966Z,14.80
2019-05-15T09:20:09.576Z,14.80
2019-05-15T09:22:39.012Z,15.00
2019-05-15T09:25:09.818Z,15.10
2019-05-15T09:27:39.078Z,15.20
2019-05-15T09:30:08.816Z,15.20
2019-05-15T09:32:39.280Z,15.20
2019-05-15T09:35:09.221Z,15.40
2019-05-15T09:37:38.832Z,15.60
2019-05-15T09:40:09.162Z,15.70
2019-05-15T09:42:38.862Z,15.80
2019-05-15T09:45:08.931Z,15.90
2019-05-15T09:47:39.641Z,16.00
2019-05-15T09:50:09.740Z,16.10
2019-05-15T09:52:39.122Z,16.30
2019-05-15T09:55:08.901Z,16.50
2019-05-15T09:57:38.565Z,16.40
2019-05-15T10:00:09.982Z,16.50
2019-05-15T10:02:39.624Z,16.60
2019-05-15T10:05:11.265Z,16.60
2019-05-15T10:07:40.371Z,16.70
2019-05-15T10:10:09.939Z,16.50
2019-05-15T10:12:39.122Z,16.50
2019-05-15T10:15:11.210Z,16.80
2019-05-15T10:17:39.379Z,16.70
2019-05-15T10:20:09.267Z,17.00
2019-05-15T10:22:38.314Z,17.40
2019-05-15T10:25:08.311Z,17.50
2019-05-15T10:27:39.815Z,17.50
2019-05-15T10:30:09.764Z,17.80
2019-05-15T10:32:39.868Z,18.00
2019-05-15T10:35:23.747Z,18.10
2019-05-15T10:37:40.023Z,17.80
2019-05-15T10:40:09.607Z,17.60
2019-05-15T10:42:39.776Z,17.50
2019-05-15T10:45:10.574Z,17.70
2019-05-15T10:47:39.525Z,17.60
2019-05-15T10:50:09.273Z,17.70
2019-05-15T10:52:38.478Z,17.80
2019-05-15T10:55:09.466Z,18.10
2019-05-15T10:57:43.405Z,18.20
2019-05-15T11:00:10.173Z,18.40
2019-05-15T11:02:39.587Z,18.50
2019-05-15T11:05:09.685Z,18.60
2019-05-15T11:07:39.687Z,18.90
2019-05-15T11:10:09.125Z,19.00
2019-05-15T11:12:38.279Z,19.00
2019-05-15T11:15:10.925Z,19.30
2019-05-15T11:17:38.926Z,19.50
2019-05-15T11:20:08.611Z,19.30
2019-05-15T11:22:42.200Z,19.30
2019-05-15T11:25:10.046Z,19.30
2019-05-15T11:27:39.392Z,19.30
2019-05-15T11:30:08.721Z,19.30
2019-05-15T11:32:39.106Z,19.30
2019-05-15T11:35:09.053Z,19.30
2019-05-15T11:37:45.445Z,19.50
2019-05-15T11:40:10.305Z,19.50
2019-05-15T11:42:42.550Z,19.50
2019-05-15T11:45:12.037Z,19.50
2019-05-15T11:47:40.794Z,19.60
2019-05-15T11:50:10.293Z,19.80
2019-05-15T11:52:40.228Z,19.90
2019-05-15T11:55:09.859Z,20.10
2019-05-15T11:57:46.789Z,19.80
2019-05-15T12:00:17.114Z,19.60
2019-05-15T12:02:41.643Z,19.60
2019-05-15T12:05:12.092Z,19.70
2019-05-15T12:07:40.994Z,19.10
2019-05-15T12:10:11.269Z,19.50
2019-05-15T12:12:40.103Z,19.50
2019-05-15T12:15:09.499Z,19.60
2019-05-15T12:17:39.237Z,19.60
2019-05-15T12:20:10.638Z,19.50
2019-05-15T12:22:40.234Z,19.40
2019-05-15T12:25:10.172Z,19.40
2019-05-15T12:30:11.867Z,19.30
2019-05-15T12:32:40.966Z,19.20
2019-05-15T12:35:10.782Z,19.10
2019-05-15T12:37:40.271Z,18.90
2019-05-15T13:00:18.512Z,18.60
2019-05-15T13:02:49.172Z,18.80
2019-05-15T13:05:19.256Z,19.00
2019-05-15T13:07:48.944Z,19.20
2019-05-15T13:10:18.447Z,19.30
2019-05-15T13:12:59.356Z,19.40
2019-05-15T13:15:19.006Z,19.40
2019-05-15T13:17:52.796Z,19.40
2019-05-15T13:20:19.574Z,19.60
2019-05-15T13:25:18.902Z,19.70
2019-05-15T13:27:48.859Z,19.70
2019-05-15T13:30:19.544Z,19.70
2019-05-15T13:32:49.623Z,19.60
2019-05-15T13:35:19.208Z,19.30
2019-05-15T13:37:49.534Z,19.10
2019-05-15T13:40:33.817Z,19.10
2019-05-15T13:42:51.789Z,19.00
2019-05-15T13:45:20.869Z,18.90
2019-05-15T13:47:49.972Z,18.80
2019-05-15T13:50:19.530Z,18.80
2019-05-15T13:52:48.785Z,18.80
2019-05-15T13:55:24.695Z,18.80
2019-05-15T13:57:48.847Z,18.80
2019-05-15T14:00:19.507Z,18.80
2019-05-15T14:02:48.558Z,18.80
2019-05-15T14:05:17.909Z,18.70
2019-05-15T14:07:50.574Z,18.90
2019-05-15T14:10:18.174Z,18.90
2019-05-15T14:12:47.914Z,18.90
2019-05-15T14:15:17.268Z,18.90
2019-05-15T14:17:48.171Z,19.00
2019-05-15T14:20:16.746Z,18.90
2019-05-15T14:22:48.254Z,19.00
2019-05-15T14:25:18.155Z,19.00
2019-05-15T14:27:48.708Z,18.70
2019-05-15T14:30:18.211Z,18.60
2019-05-15T14:32:48.445Z,18.70
2019-05-15T14:35:18.133Z,18.70
2019-05-15T14:38:01.876Z,18.60
2019-05-15T14:40:18.318Z,18.60
2019-05-15T14:42:48.518Z,18.50
2019-05-15T14:45:19.062Z,18.50
2019-05-15T14:47:49.305Z,18.60
2019-05-15T14:50:18.520Z,18.70
2019-05-15T14:52:47.986Z,18.70
2019-05-15T14:55:17.182Z,18.80
2019-05-15T14:57:48.489Z,18.80
2019-05-15T15:00:19.884Z,18.70
2019-05-15T15:02:49.448Z,18.60
2019-05-15T15:05:21.530Z,18.40
2019-05-15T15:07:49.295Z,18.40
2019-05-15T15:10:20.084Z,18.40
2019-05-15T15:12:49.933Z,18.40
2019-05-15T15:15:19.225Z,18.50
2019-05-15T15:17:49.330Z,18.60
2019-05-15T15:20:18.508Z,18.50
2019-05-15T15:22:48.692Z,18.60
2019-05-15T15:25:17.767Z,18.70
2019-05-15T15:27:47.977Z,18.70
2019-05-15T15:30:18.999Z,18.70
2019-05-15T15:32:48.957Z,18.60
2019-05-15T15:35:18.707Z,18.50
2019-05-15T15:37:48.713Z,18.50
2019-05-15T15:40:18.881Z,18.40
2019-05-15T15:42:48.519Z,18.30
2019-05-15T15:45:19.319Z,18.20
2019-05-15T15:47:48.804Z,18.30
2019-05-15T15:50:18.403Z,18.30
2019-05-15T15:52:48.899Z,18.40
2019-05-15T15:55:18.616Z,18.50
2019-05-15T15:57:48.706Z,18.60
2019-05-15T16:00:18.661Z,18.60
2019-05-15T16:02:48.386Z,18.60
2019-05-15T16:05:19.043Z,18.60
2019-05-15T16:07:48.602Z,18.70
2019-05-15T16:10:18.962Z,18.70
2019-05-15T16:12:49.240Z,18.60
2019-05-15T16:15:18.638Z,18.50
2019-05-15T16:17:48.765Z,18.40
2019-05-15T16:20:19.045Z,18.40
2019-05-15T16:22:48.747Z,18.20
2019-05-15T16:25:18.543Z,18.10
2019-05-15T16:27:48.806Z,18.00
2019-05-15T16:30:18.763Z,18.10
2019-05-15T16:32:47.686Z,18.00
2019-05-15T16:35:18.419Z,18.00
2019-05-15T16:37:49.210Z,18.00
2019-05-15T16:40:18.517Z,18.00
2019-05-15T16:42:48.801Z,17.90
2019-05-15T16:45:19.177Z,18.00
2019-05-15T16:47:48.422Z,17.90
2019-05-15T16:50:18.282Z,17.90
2019-05-15T16:52:48.996Z,17.90
2019-05-15T16:55:18.123Z,17.80
2019-05-15T16:57:47.939Z,17.70
2019-05-15T17:00:18.713Z,17.70
2019-05-15T17:02:48.353Z,17.70
2019-05-15T17:05:18.575Z,17.60
2019-05-15T17:07:48.918Z,17.60
2019-05-15T17:10:18.261Z,17.60
2019-05-15T17:12:49.273Z,17.50
2019-05-15T17:15:17.906Z,17.50
2019-05-15T17:17:48.740Z,17.60
2019-05-15T17:20:18.171Z,17.50
2019-05-15T17:22:48.372Z,17.50
2019-05-15T17:25:18.424Z,17.50
2019-05-15T17:27:47.470Z,17.50
2019-05-15T17:30:18.251Z,17.40
2019-05-15T17:32:49.311Z,17.40
2019-05-15T17:35:19.640Z,17.30
2019-05-15T17:37:49.260Z,17.30
2019-05-15T17:40:18.106Z,17.20
2019-05-15T17:42:49.286Z,17.20
2019-05-15T17:45:19.398Z,16.90
2019-05-15T17:47:48.801Z,17.10
2019-05-15T17:50:19.071Z,16.90
2019-05-15T17:52:51.287Z,16.90
2019-05-15T17:55:20.144Z,16.60
2019-05-15T17:57:56.724Z,16.60
2019-05-15T18:00:20.148Z,16.60
2019-05-15T18:02:49.709Z,16.70
2019-05-15T18:05:19.060Z,16.70
2019-05-15T18:07:48.908Z,16.80
2019-05-15T18:10:18.801Z,16.80
2019-05-15T18:12:48.841Z,16.80
2019-05-15T18:15:18.090Z,16.70
2019-05-15T18:17:48.093Z,16.80
2019-05-15T18:20:20.430Z,16.80
2019-05-15T18:22:49.196Z,16.90
2019-05-15T18:25:18.362Z,16.80
2019-05-15T18:27:48.049Z,16.80
2019-05-15T18:30:18.396Z,16.80
2019-05-15T18:32:48.882Z,16.80
2019-05-15T18:35:18.801Z,16.80
2019-05-15T18:37:48.282Z,16.80
2019-05-15T18:40:18.949Z,16.80
2019-05-15T18:42:49.576Z,16.70
2019-05-15T18:45:18.413Z,16.60
2019-05-15T18:47:48.078Z,16.40
2019-05-15T18:50:18.981Z,16.40
2019-05-15T18:52:48.767Z,16.40
2019-05-15T18:55:18.479Z,16.40
2019-05-15T18:57:48.601Z,16.40
2019-05-15T19:00:18.536Z,16.50
2019-05-15T19:02:47.408Z,16.50
2019-05-15T19:05:18.410Z,16.50
2019-05-15T19:07:48.668Z,16.60
2019-05-15T19:10:21.114Z,16.60
2019-05-15T19:12:49.840Z,16.50
2019-05-15T19:15:19.180Z,16.50
2019-05-15T19:17:47.963Z,16.40
2019-05-15T19:20:18.980Z,16.20
2019-05-15T19:22:48.429Z,16.20
2019-05-15T19:25:18.016Z,16.20
2019-05-15T19:27:47.091Z,16.20
2019-05-15T19:30:18.892Z,16.20
2019-05-15T19:32:49.102Z,16.10
2019-05-15T19:35:18.547Z,16.00
2019-05-15T19:37:48.905Z,16.00
2019-05-15T19:40:18.779Z,16.00
2019-05-15T19:42:48.803Z,15.90
2019-05-15T19:45:17.961Z,15.80
2019-05-15T19:47:47.801Z,15.80
2019-05-15T19:50:18.086Z,15.90
2019-05-15T19:52:48.234Z,15.90
2019-05-15T19:55:17.724Z,15.90
2019-05-15T19:57:47.754Z,15.80
2019-05-15T20:00:18.775Z,15.80
2019-05-15T20:02:48.641Z,15.90
2019-05-15T20:05:18.267Z,15.90
2019-05-15T20:07:47.995Z,16.00
2019-05-15T20:10:20.338Z,16.00
2019-05-15T20:12:49.605Z,15.80
2019-05-15T20:15:19.174Z,15.70
2019-05-15T20:17:48.389Z,15.60
2019-05-15T20:20:18.713Z,15.70
2019-05-15T20:22:48.113Z,15.70
2019-05-15T20:25:18.479Z,15.60
2019-05-15T20:27:48.190Z,15.60
2019-05-15T20:30:18.040Z,15.60
2019-05-15T20:32:47.865Z,15.70
2019-05-15T20:35:16.950Z,15.70
2019-05-15T20:37:48.461Z,15.70
2019-05-15T20:40:18.120Z,15.70
2019-05-15T20:42:48.464Z,15.70
2019-05-15T20:45:18.419Z,15.70
2019-05-15T20:47:48.564Z,15.70
2019-05-15T20:50:19.326Z,15.60
2019-05-15T20:52:48.729Z,15.60
2019-05-15T20:55:19.004Z,15.60
2019-05-15T20:57:50.414Z,15.50
2019-05-15T21:00:19.570Z,15.50
2019-05-15T21:02:48.780Z,15.60
2019-05-15T21:05:18.547Z,15.60
2019-05-15T21:07:48.699Z,15.60
2019-05-15T21:10:21.697Z,15.60
2019-05-15T21:12:50.885Z,15.50
2019-05-15T21:15:21.386Z,15.60
2019-05-15T21:17:57.668Z,15.60
2019-05-15T21:20:21.328Z,15.50
2019-05-15T21:22:50.125Z,15.50
2019-05-15T21:25:19.971Z,15.50
2019-05-15T21:27:49.175Z,15.50
2019-05-15T21:30:19.320Z,15.60
2019-05-15T21:32:49.389Z,15.50
2019-05-15T21:35:18.611Z,15.50
2019-05-15T21:37:50.769Z,15.50
2019-05-15T21:40:19.817Z,15.40
2019-05-15T21:42:49.495Z,15.30
2019-05-15T21:45:18.706Z,15.30
2019-05-15T21:47:47.495Z,15.20
2019-05-15T21:50:19.094Z,15.20
2019-05-15T21:52:49.501Z,15.20
2019-05-15T21:55:19.079Z,15.20
2019-05-15T21:57:48.455Z,15.10
2019-05-15T22:00:28.946Z,15.00
2019-05-15T22:02:58.500Z,15.10
2019-05-15T22:05:27.616Z,15.00
2019-05-15T22:07:58.715Z,14.90
2019-05-15T22:10:28.846Z,14.90
2019-05-15T22:12:58.910Z,15.00
2019-05-15T22:15:28.737Z,15.00
2019-05-15T22:17:58.284Z,14.90
2019-05-15T22:20:30.071Z,14.90
2019-05-15T22:22:59.754Z,14.90
2019-05-15T22:25:28.572Z,15.00
2019-05-15T22:27:58.172Z,14.90
2019-05-15T22:30:30.264Z,14.80
2019-05-15T22:32:58.954Z,14.80
2019-05-15T22:35:29.443Z,14.70
2019-05-15T22:37:58.792Z,14.80
2019-05-15T22:40:28.936Z,14.70
2019-05-15T22:42:59.118Z,14.80
2019-05-15T22:45:28.774Z,14.80
2019-05-15T22:47:58.703Z,14.90
2019-05-15T22:50:28.088Z,14.80
2019-05-15T22:52:58.622Z,14.80
2019-05-15T22:55:29.013Z,14.80
2019-05-15T22:57:58.648Z,14.60
2019-05-15T23:00:29.164Z,14.60
2019-05-15T23:02:58.314Z,14.60
2019-05-15T23:05:31.009Z,14.60
2019-05-15T23:07:59.148Z,14.60
2019-05-15T23:10:29.165Z,14.50
2019-05-15T23:12:58.708Z,14.40
2019-05-15T23:15:28.302Z,14.60
2019-05-15T23:17:58.226Z,14.60
2019-05-15T23:20:28.478Z,14.60
2019-05-15T23:22:58.466Z,14.50
2019-05-15T23:25:29.019Z,14.40
2019-05-15T23:27:58.410Z,14.50
2019-05-15T23:30:28.831Z,14.50
2019-05-15T23:32:58.523Z,14.60
2019-05-15T23:35:35.445Z,14.60
2019-05-15T23:37:58.285Z,14.40
2019-05-15T23:40:28.723Z,14.40
2019-05-15T23:42:58.143Z,14.40
2019-05-15T23:45:28.907Z,14.30
2019-05-15T23:47:58.041Z,14.30
2019-05-15T23:50:28.917Z,14.40
2019-05-15T23:52:58.537Z,14.40
2019-05-15T23:55:28.471Z,14.30
2019-05-15T23:57:58.429Z,14.30
